sensor_id;sensor_type;location;lat;lon;timestamp;P1;durP1;ratioP1;P2;durP2;ratioP2
22646;SDS011;11490;42.726;23.268;2023-06-24T00:01:15;13.05;;;7.15;;
22646;SDS011;11490;42.726;23.268;2023-06-24T00:03:41;14.60;;;7.38;;
22646;SDS011;11490;42.726;23.268;2023-06-24T00:06:11;11.13;;;7.25;;
22646;SDS011;11490;42.726;23.268;2023-06-24T00:08:43;13.70;;;7.95;;
22646;SDS011;11490;42.726;23.268;2023-06-24T00:11:10;12.15;;;7.82;;
22646;SDS011;11490;42.726;23.268;2023-06-24T00:13:35;12.40;;;8.05;;
22646;SDS011;11490;42.726;23.268;2023-06-24T00:16:01;14.82;;;8.18;;
22646;SDS011;11490;42.726;23.268;2023-06-24T00:18:27;17.42;;;9.07;;
22646;SDS011;11490;42.726;23.268;2023-06-24T00:20:54;10.55;;;7.28;;
22646;SDS011;11490;42.726;23.268;2023-06-24T00:23:21;14.52;;;7.93;;
22646;SDS011;11490;42.726;23.268;2023-06-24T00:25:53;12.63;;;7.55;;
22646;SDS011;11490;42.726;23.268;2023-06-24T00:28:20;11.45;;;7.72;;
22646;SDS011;11490;42.726;23.268;2023-06-24T00:30:48;10.95;;;7.97;;
22646;SDS011;11490;42.726;23.268;2023-06-24T00:33:14;12.60;;;7.75;;
22646;SDS011;11490;42.726;23.268;2023-06-24T00:35:42;10.23;;;7.45;;
22646;SDS011;11490;42.726;23.268;2023-06-24T00:38:10;11.65;;;7.68;;
22646;SDS011;11490;42.726;23.268;2023-06-24T00:40:36;10.63;;;7.43;;
22646;SDS011;11490;42.726;23.268;2023-06-24T00:43:02;12.38;;;7.28;;
22646;SDS011;11490;42.726;23.268;2023-06-24T00:45:28;8.82;;;6.30;;
22646;SDS011;11490;42.726;23.268;2023-06-24T00:47:57;10.55;;;6.88;;
22646;SDS011;11490;42.726;23.268;2023-06-24T00:50:23;12.60;;;7.00;;
22646;SDS011;11490;42.726;23.268;2023-06-24T00:52:49;10.80;;;6.65;;
22646;SDS011;11490;42.726;23.268;2023-06-24T00:55:15;13.23;;;6.63;;
22646;SDS011;11490;42.726;23.268;2023-06-24T00:57:42;9.57;;;6.30;;
22646;SDS011;11490;42.726;23.268;2023-06-24T01:00:09;11.27;;;7.30;;
22646;SDS011;11490;42.726;23.268;2023-06-24T01:02:39;14.25;;;6.72;;
22646;SDS011;11490;42.726;23.268;2023-06-24T01:05:07;9.88;;;6.80;;
22646;SDS011;11490;42.726;23.268;2023-06-24T01:07:33;8.93;;;6.10;;
22646;SDS011;11490;42.726;23.268;2023-06-24T01:10:01;9.18;;;6.80;;
22646;SDS011;11490;42.726;23.268;2023-06-24T01:12:29;9.40;;;6.75;;
22646;SDS011;11490;42.726;23.268;2023-06-24T01:14:55;9.65;;;6.50;;
22646;SDS011;11490;42.726;23.268;2023-06-24T01:17:25;12.05;;;7.00;;
22646;SDS011;11490;42.726;23.268;2023-06-24T01:28:10;15.38;;;7.22;;
22646;SDS011;11490;42.726;23.268;2023-06-24T01:34:10;12.55;;;7.38;;
22646;SDS011;11490;42.726;23.268;2023-06-24T01:36:45;10.68;;;6.57;;
22646;SDS011;11490;42.726;23.268;2023-06-24T01:39:20;12.75;;;7.72;;
22646;SDS011;11490;42.726;23.268;2023-06-24T01:41:58;11.63;;;7.50;;
22646;SDS011;11490;42.726;23.268;2023-06-24T01:44:25;16.67;;;8.50;;
22646;SDS011;11490;42.726;23.268;2023-06-24T01:46:54;13.60;;;9.02;;
22646;SDS011;11490;42.726;23.268;2023-06-24T01:49:22;13.77;;;7.60;;
22646;SDS011;11490;42.726;23.268;2023-06-24T01:51:51;13.15;;;8.35;;
22646;SDS011;11490;42.726;23.268;2023-06-24T01:54:17;12.23;;;7.80;;
22646;SDS011;11490;42.726;23.268;2023-06-24T01:56:45;12.05;;;8.18;;
22646;SDS011;11490;42.726;23.268;2023-06-24T01:59:13;16.73;;;8.63;;
22646;SDS011;11490;42.726;23.268;2023-06-24T02:01:41;13.25;;;8.60;;
22646;SDS011;11490;42.726;23.268;2023-06-24T02:04:08;13.95;;;8.77;;
22646;SDS011;11490;42.726;23.268;2023-06-24T02:06:36;15.80;;;8.82;;
22646;SDS011;11490;42.726;23.268;2023-06-24T02:09:05;18.33;;;9.38;;
22646;SDS011;11490;42.726;23.268;2023-06-24T02:11:32;13.75;;;9.00;;
22646;SDS011;11490;42.726;23.268;2023-06-24T02:14:01;15.68;;;8.45;;
22646;SDS011;11490;42.726;23.268;2023-06-24T02:16:28;12.27;;;8.77;;
22646;SDS011;11490;42.726;23.268;2023-06-24T02:18:55;11.32;;;8.27;;
22646;SDS011;11490;42.726;23.268;2023-06-24T02:21:21;14.13;;;9.27;;
22646;SDS011;11490;42.726;23.268;2023-06-24T02:23:49;18.60;;;8.93;;
22646;SDS011;11490;42.726;23.268;2023-06-24T02:26:16;16.85;;;9.88;;
22646;SDS011;11490;42.726;23.268;2023-06-24T02:28:43;12.45;;;8.60;;
22646;SDS011;11490;42.726;23.268;2023-06-24T02:31:10;17.55;;;8.77;;
22646;SDS011;11490;42.726;23.268;2023-06-24T02:33:37;17.67;;;9.27;;
22646;SDS011;11490;42.726;23.268;2023-06-24T02:36:02;12.18;;;8.48;;
22646;SDS011;11490;42.726;23.268;2023-06-24T02:38:28;13.48;;;8.65;;
22646;SDS011;11490;42.726;23.268;2023-06-24T02:40:54;14.10;;;9.38;;
22646;SDS011;11490;42.726;23.268;2023-06-24T02:43:19;13.50;;;8.57;;
22646;SDS011;11490;42.726;23.268;2023-06-24T02:45:45;16.50;;;8.68;;
22646;SDS011;11490;42.726;23.268;2023-06-24T02:48:13;23.40;;;9.75;;
22646;SDS011;11490;42.726;23.268;2023-06-24T02:50:39;17.20;;;10.27;;
22646;SDS011;11490;42.726;23.268;2023-06-24T02:53:06;15.43;;;9.45;;
22646;SDS011;11490;42.726;23.268;2023-06-24T02:55:33;15.32;;;8.98;;
22646;SDS011;11490;42.726;23.268;2023-06-24T02:58:00;13.65;;;8.90;;
22646;SDS011;11490;42.726;23.268;2023-06-24T03:00:27;16.77;;;9.55;;
22646;SDS011;11490;42.726;23.268;2023-06-24T03:02:54;13.75;;;9.25;;
22646;SDS011;11490;42.726;23.268;2023-06-24T03:05:20;15.73;;;9.02;;
22646;SDS011;11490;42.726;23.268;2023-06-24T03:07:46;14.30;;;9.15;;
22646;SDS011;11490;42.726;23.268;2023-06-24T03:10:12;16.30;;;9.52;;
22646;SDS011;11490;42.726;23.268;2023-06-24T03:12:39;19.75;;;8.57;;
22646;SDS011;11490;42.726;23.268;2023-06-24T03:15:04;17.00;;;8.88;;
22646;SDS011;11490;42.726;23.268;2023-06-24T03:17:30;23.55;;;9.80;;
22646;SDS011;11490;42.726;23.268;2023-06-24T03:19:56;16.30;;;9.73;;
22646;SDS011;11490;42.726;23.268;2023-06-24T03:22:21;14.52;;;8.15;;
22646;SDS011;11490;42.726;23.268;2023-06-24T03:24:47;14.70;;;8.80;;
22646;SDS011;11490;42.726;23.268;2023-06-24T03:27:14;12.52;;;8.20;;
22646;SDS011;11490;42.726;23.268;2023-06-24T03:29:39;18.00;;;9.95;;
22646;SDS011;11490;42.726;23.268;2023-06-24T03:32:04;14.48;;;9.57;;
22646;SDS011;11490;42.726;23.268;2023-06-24T03:34:30;19.05;;;9.40;;
22646;SDS011;11490;42.726;23.268;2023-06-24T03:36:55;18.33;;;9.38;;
22646;SDS011;11490;42.726;23.268;2023-06-24T03:39:21;14.82;;;7.93;;
22646;SDS011;11490;42.726;23.268;2023-06-24T03:41:47;18.02;;;9.13;;
22646;SDS011;11490;42.726;23.268;2023-06-24T03:44:12;13.20;;;8.70;;
22646;SDS011;11490;42.726;23.268;2023-06-24T03:46:38;15.68;;;9.15;;
22646;SDS011;11490;42.726;23.268;2023-06-24T03:49:04;18.35;;;10.90;;
22646;SDS011;11490;42.726;23.268;2023-06-24T03:51:29;14.82;;;9.20;;
22646;SDS011;11490;42.726;23.268;2023-06-24T03:53:57;13.82;;;8.82;;
22646;SDS011;11490;42.726;23.268;2023-06-24T03:56:23;14.18;;;9.77;;
22646;SDS011;11490;42.726;23.268;2023-06-24T03:58:48;16.13;;;9.40;;
22646;SDS011;11490;42.726;23.268;2023-06-24T04:01:14;14.95;;;8.95;;
22646;SDS011;11490;42.726;23.268;2023-06-24T04:03:39;13.18;;;9.23;;
22646;SDS011;11490;42.726;23.268;2023-06-24T04:06:05;14.55;;;9.45;;
22646;SDS011;11490;42.726;23.268;2023-06-24T04:08:30;13.77;;;8.88;;
22646;SDS011;11490;42.726;23.268;2023-06-24T04:10:56;14.63;;;9.35;;
22646;SDS011;11490;42.726;23.268;2023-06-24T04:13:28;24.00;;;10.30;;
22646;SDS011;11490;42.726;23.268;2023-06-24T04:15:54;14.88;;;9.23;;
22646;SDS011;11490;42.726;23.268;2023-06-24T04:18:20;16.50;;;9.55;;
22646;SDS011;11490;42.726;23.268;2023-06-24T04:20:45;13.68;;;9.18;;
22646;SDS011;11490;42.726;23.268;2023-06-24T04:23:11;15.55;;;10.13;;
22646;SDS011;11490;42.726;23.268;2023-06-24T04:25:39;16.77;;;9.90;;
22646;SDS011;11490;42.726;23.268;2023-06-24T04:28:05;15.88;;;9.57;;
22646;SDS011;11490;42.726;23.268;2023-06-24T04:30:31;13.05;;;8.88;;
22646;SDS011;11490;42.726;23.268;2023-06-24T04:32:57;17.67;;;9.15;;
22646;SDS011;11490;42.726;23.268;2023-06-24T04:35:23;13.68;;;8.70;;
22646;SDS011;11490;42.726;23.268;2023-06-24T04:37:49;13.38;;;8.98;;
22646;SDS011;11490;42.726;23.268;2023-06-24T04:40:16;13.80;;;8.52;;
22646;SDS011;11490;42.726;23.268;2023-06-24T04:42:42;16.15;;;10.18;;
22646;SDS011;11490;42.726;23.268;2023-06-24T04:45:08;12.82;;;9.40;;
22646;SDS011;11490;42.726;23.268;2023-06-24T04:47:33;15.80;;;9.60;;
22646;SDS011;11490;42.726;23.268;2023-06-24T04:49:59;14.50;;;9.63;;
22646;SDS011;11490;42.726;23.268;2023-06-24T04:52:24;15.13;;;9.70;;
22646;SDS011;11490;42.726;23.268;2023-06-24T04:54:50;14.48;;;9.30;;
22646;SDS011;11490;42.726;23.268;2023-06-24T04:59:57;14.38;;;9.10;;
22646;SDS011;11490;42.726;23.268;2023-06-24T05:02:23;13.45;;;9.57;;
22646;SDS011;11490;42.726;23.268;2023-06-24T05:04:49;16.42;;;8.85;;
22646;SDS011;11490;42.726;23.268;2023-06-24T05:07:15;13.77;;;9.30;;
22646;SDS011;11490;42.726;23.268;2023-06-24T05:09:40;15.93;;;8.95;;
22646;SDS011;11490;42.726;23.268;2023-06-24T05:12:07;15.27;;;9.90;;
22646;SDS011;11490;42.726;23.268;2023-06-24T05:14:34;14.18;;;9.95;;
22646;SDS011;11490;42.726;23.268;2023-06-24T05:17:00;14.40;;;10.27;;
22646;SDS011;11490;42.726;23.268;2023-06-24T05:19:25;16.65;;;9.30;;
22646;SDS011;11490;42.726;23.268;2023-06-24T05:21:51;17.52;;;10.57;;
22646;SDS011;11490;42.726;23.268;2023-06-24T05:24:16;16.88;;;10.00;;
22646;SDS011;11490;42.726;23.268;2023-06-24T05:26:44;13.52;;;9.10;;
22646;SDS011;11490;42.726;23.268;2023-06-24T05:29:12;18.48;;;9.13;;
22646;SDS011;11490;42.726;23.268;2023-06-24T05:31:37;14.20;;;8.77;;
22646;SDS011;11490;42.726;23.268;2023-06-24T05:34:03;13.25;;;8.52;;
22646;SDS011;11490;42.726;23.268;2023-06-24T05:36:28;15.45;;;8.90;;
22646;SDS011;11490;42.726;23.268;2023-06-24T05:38:54;13.48;;;8.82;;
22646;SDS011;11490;42.726;23.268;2023-06-24T05:41:19;12.65;;;8.30;;
22646;SDS011;11490;42.726;23.268;2023-06-24T05:43:45;11.63;;;8.80;;
22646;SDS011;11490;42.726;23.268;2023-06-24T05:46:10;14.45;;;9.35;;
22646;SDS011;11490;42.726;23.268;2023-06-24T05:48:36;12.57;;;8.32;;
22646;SDS011;11490;42.726;23.268;2023-06-24T05:51:02;13.95;;;9.00;;
22646;SDS011;11490;42.726;23.268;2023-06-24T05:53:27;12.75;;;8.82;;
22646;SDS011;11490;42.726;23.268;2023-06-24T05:55:53;12.18;;;8.25;;
22646;SDS011;11490;42.726;23.268;2023-06-24T05:58:18;12.50;;;8.45;;
22646;SDS011;11490;42.726;23.268;2023-06-24T06:00:47;12.52;;;8.70;;
22646;SDS011;11490;42.726;23.268;2023-06-24T06:03:13;11.55;;;7.50;;
22646;SDS011;11490;42.726;23.268;2023-06-24T06:05:38;12.68;;;8.68;;
22646;SDS011;11490;42.726;23.268;2023-06-24T06:08:03;13.90;;;8.15;;
22646;SDS011;11490;42.726;23.268;2023-06-24T06:10:29;14.50;;;8.77;;
22646;SDS011;11490;42.726;23.268;2023-06-24T06:12:55;12.93;;;7.88;;
22646;SDS011;11490;42.726;23.268;2023-06-24T06:15:20;12.00;;;8.07;;
22646;SDS011;11490;42.726;23.268;2023-06-24T06:17:46;19.67;;;9.18;;
22646;SDS011;11490;42.726;23.268;2023-06-24T06:20:11;12.60;;;8.68;;
22646;SDS011;11490;42.726;23.268;2023-06-24T06:22:37;15.43;;;8.55;;
22646;SDS011;11490;42.726;23.268;2023-06-24T06:25:06;14.30;;;8.70;;
22646;SDS011;11490;42.726;23.268;2023-06-24T06:27:32;17.17;;;9.25;;
22646;SDS011;11490;42.726;23.268;2023-06-24T06:29:57;11.55;;;8.13;;
22646;SDS011;11490;42.726;23.268;2023-06-24T06:32:23;21.70;;;9.57;;
22646;SDS011;11490;42.726;23.268;2023-06-24T06:34:48;16.20;;;9.60;;
22646;SDS011;11490;42.726;23.268;2023-06-24T06:37:13;14.23;;;9.32;;
22646;SDS011;11490;42.726;23.268;2023-06-24T06:39:39;16.65;;;7.72;;
22646;SDS011;11490;42.726;23.268;2023-06-24T06:42:04;14.23;;;8.70;;
22646;SDS011;11490;42.726;23.268;2023-06-24T06:44:30;18.52;;;8.75;;
22646;SDS011;11490;42.726;23.268;2023-06-24T06:46:55;13.13;;;8.95;;
22646;SDS011;11490;42.726;23.268;2023-06-24T06:49:21;15.30;;;8.95;;
22646;SDS011;11490;42.726;23.268;2023-06-24T06:51:47;12.25;;;7.97;;
22646;SDS011;11490;42.726;23.268;2023-06-24T06:54:12;16.55;;;8.65;;
22646;SDS011;11490;42.726;23.268;2023-06-24T06:56:38;13.07;;;8.05;;
22646;SDS011;11490;42.726;23.268;2023-06-24T06:59:04;15.25;;;8.27;;
22646;SDS011;11490;42.726;23.268;2023-06-24T07:01:30;13.43;;;8.82;;
22646;SDS011;11490;42.726;23.268;2023-06-24T07:03:55;12.05;;;6.93;;
22646;SDS011;11490;42.726;23.268;2023-06-24T07:06:20;14.20;;;8.00;;
22646;SDS011;11490;42.726;23.268;2023-06-24T07:08:46;10.15;;;7.20;;
22646;SDS011;11490;42.726;23.268;2023-06-24T07:11:11;13.13;;;7.88;;
22646;SDS011;11490;42.726;23.268;2023-06-24T07:13:40;12.82;;;7.05;;
22646;SDS011;11490;42.726;23.268;2023-06-24T07:16:05;9.43;;;6.70;;
22646;SDS011;11490;42.726;23.268;2023-06-24T07:18:31;10.65;;;7.68;;
22646;SDS011;11490;42.726;23.268;2023-06-24T07:20:56;10.98;;;7.35;;
22646;SDS011;11490;42.726;23.268;2023-06-24T07:23:25;11.50;;;6.93;;
22646;SDS011;11490;42.726;23.268;2023-06-24T07:25:50;12.82;;;7.10;;
22646;SDS011;11490;42.726;23.268;2023-06-24T07:28:16;14.25;;;7.13;;
22646;SDS011;11490;42.726;23.268;2023-06-24T07:30:41;15.02;;;9.25;;
22646;SDS011;11490;42.726;23.268;2023-06-24T07:33:07;14.25;;;6.72;;
22646;SDS011;11490;42.726;23.268;2023-06-24T07:35:33;13.50;;;8.68;;
22646;SDS011;11490;42.726;23.268;2023-06-24T07:37:58;10.15;;;6.72;;
22646;SDS011;11490;42.726;23.268;2023-06-24T07:40:24;14.95;;;7.65;;
22646;SDS011;11490;42.726;23.268;2023-06-24T07:42:50;14.88;;;7.28;;
22646;SDS011;11490;42.726;23.268;2023-06-24T07:45:15;14.77;;;8.02;;
22646;SDS011;11490;42.726;23.268;2023-06-24T07:47:41;11.02;;;6.82;;
22646;SDS011;11490;42.726;23.268;2023-06-24T07:50:09;9.38;;;6.95;;
22646;SDS011;11490;42.726;23.268;2023-06-24T07:52:36;12.63;;;6.97;;
22646;SDS011;11490;42.726;23.268;2023-06-24T07:55:02;11.90;;;8.00;;
22646;SDS011;11490;42.726;23.268;2023-06-24T07:57:28;10.27;;;7.18;;
22646;SDS011;11490;42.726;23.268;2023-06-24T07:59:54;13.18;;;6.80;;
22646;SDS011;11490;42.726;23.268;2023-06-24T08:02:19;13.13;;;7.65;;
22646;SDS011;11490;42.726;23.268;2023-06-24T08:04:45;12.18;;;7.10;;
22646;SDS011;11490;42.726;23.268;2023-06-24T08:07:10;9.35;;;6.50;;
22646;SDS011;11490;42.726;23.268;2023-06-24T08:09:36;12.05;;;7.45;;
22646;SDS011;11490;42.726;23.268;2023-06-24T08:12:01;9.88;;;7.15;;
22646;SDS011;11490;42.726;23.268;2023-06-24T08:14:27;10.82;;;6.43;;
22646;SDS011;11490;42.726;23.268;2023-06-24T08:16:52;9.15;;;6.22;;
22646;SDS011;11490;42.726;23.268;2023-06-24T08:19:17;17.50;;;7.32;;
22646;SDS011;11490;42.726;23.268;2023-06-24T08:21:43;13.40;;;7.03;;
22646;SDS011;11490;42.726;23.268;2023-06-24T08:24:08;12.68;;;6.30;;
22646;SDS011;11490;42.726;23.268;2023-06-24T08:26:33;9.65;;;6.80;;
22646;SDS011;11490;42.726;23.268;2023-06-24T08:28:59;11.63;;;7.30;;
22646;SDS011;11490;42.726;23.268;2023-06-24T08:31:25;11.10;;;6.80;;
22646;SDS011;11490;42.726;23.268;2023-06-24T08:33:54;10.10;;;6.97;;
22646;SDS011;11490;42.726;23.268;2023-06-24T08:36:22;12.38;;;7.50;;
22646;SDS011;11490;42.726;23.268;2023-06-24T08:38:51;17.48;;;6.97;;
22646;SDS011;11490;42.726;23.268;2023-06-24T08:41:16;11.15;;;7.05;;
22646;SDS011;11490;42.726;23.268;2023-06-24T08:43:44;9.52;;;6.75;;
22646;SDS011;11490;42.726;23.268;2023-06-24T08:46:09;10.32;;;6.78;;
22646;SDS011;11490;42.726;23.268;2023-06-24T08:48:37;13.73;;;7.25;;
22646;SDS011;11490;42.726;23.268;2023-06-24T08:51:07;10.52;;;7.05;;
22646;SDS011;11490;42.726;23.268;2023-06-24T08:53:34;10.40;;;6.72;;
22646;SDS011;11490;42.726;23.268;2023-06-24T08:56:02;10.05;;;7.13;;
22646;SDS011;11490;42.726;23.268;2023-06-24T08:58:29;9.98;;;6.43;;
22646;SDS011;11490;42.726;23.268;2023-06-24T09:00:55;11.20;;;7.22;;
22646;SDS011;11490;42.726;23.268;2023-06-24T09:03:25;8.43;;;6.32;;
22646;SDS011;11490;42.726;23.268;2023-06-24T09:05:56;8.35;;;6.28;;
22646;SDS011;11490;42.726;23.268;2023-06-24T09:08:21;12.15;;;7.22;;
22646;SDS011;11490;42.726;23.268;2023-06-24T09:10:52;13.45;;;6.32;;
22646;SDS011;11490;42.726;23.268;2023-06-24T09:13:20;9.02;;;6.78;;
22646;SDS011;11490;42.726;23.268;2023-06-24T09:15:48;9.45;;;6.38;;
22646;SDS011;11490;42.726;23.268;2023-06-24T09:18:13;11.82;;;6.45;;
22646;SDS011;11490;42.726;23.268;2023-06-24T09:20:42;11.10;;;6.43;;
22646;SDS011;11490;42.726;23.268;2023-06-24T09:23:10;9.18;;;6.30;;
22646;SDS011;11490;42.726;23.268;2023-06-24T09:25:36;9.88;;;6.72;;
22646;SDS011;11490;42.726;23.268;2023-06-24T09:28:01;8.88;;;6.13;;
22646;SDS011;11490;42.726;23.268;2023-06-24T09:33:12;12.93;;;5.88;;
22646;SDS011;11490;42.726;23.268;2023-06-24T09:35:48;8.15;;;5.95;;
22646;SDS011;11490;42.726;23.268;2023-06-24T09:38:17;7.28;;;5.78;;
22646;SDS011;11490;42.726;23.268;2023-06-24T09:41:01;10.35;;;6.82;;
22646;SDS011;11490;42.726;23.268;2023-06-24T09:43:39;9.55;;;5.95;;
22646;SDS011;11490;42.726;23.268;2023-06-24T09:46:07;11.48;;;6.07;;
22646;SDS011;11490;42.726;23.268;2023-06-24T09:48:33;9.65;;;5.90;;
22646;SDS011;11490;42.726;23.268;2023-06-24T09:50:59;7.40;;;5.30;;
22646;SDS011;11490;42.726;23.268;2023-06-24T09:53:33;12.20;;;6.80;;
22646;SDS011;11490;42.726;23.268;2023-06-24T09:56:00;9.00;;;6.05;;
22646;SDS011;11490;42.726;23.268;2023-06-24T09:58:28;9.35;;;6.28;;
22646;SDS011;11490;42.726;23.268;2023-06-24T10:01:04;8.25;;;6.00;;
22646;SDS011;11490;42.726;23.268;2023-06-24T10:03:34;9.90;;;6.53;;
22646;SDS011;11490;42.726;23.268;2023-06-24T10:06:04;9.20;;;6.65;;
22646;SDS011;11490;42.726;23.268;2023-06-24T10:08:30;9.48;;;5.82;;
22646;SDS011;11490;42.726;23.268;2023-06-24T10:10:59;8.40;;;6.25;;
22646;SDS011;11490;42.726;23.268;2023-06-24T10:13:25;9.82;;;6.18;;
22646;SDS011;11490;42.726;23.268;2023-06-24T10:15:51;8.55;;;6.65;;
22646;SDS011;11490;42.726;23.268;2023-06-24T10:18:36;10.40;;;5.97;;
22646;SDS011;11490;42.726;23.268;2023-06-24T10:21:06;14.32;;;6.13;;
22646;SDS011;11490;42.726;23.268;2023-06-24T10:23:33;9.23;;;6.03;;
22646;SDS011;11490;42.726;23.268;2023-06-24T10:26:10;8.77;;;5.82;;
22646;SDS011;11490;42.726;23.268;2023-06-24T10:37:02;10.57;;;6.22;;
22646;SDS011;11490;42.726;23.268;2023-06-24T10:39:50;6.65;;;4.97;;
22646;SDS011;11490;42.726;23.268;2023-06-24T10:44:58;8.88;;;5.43;;
22646;SDS011;11490;42.726;23.268;2023-06-24T10:47:42;14.85;;;6.35;;
22646;SDS011;11490;42.726;23.268;2023-06-24T10:50:27;16.25;;;5.82;;
22646;SDS011;11490;42.726;23.268;2023-06-24T10:52:58;8.90;;;5.85;;
22646;SDS011;11490;42.726;23.268;2023-06-24T10:55:26;9.00;;;5.22;;
22646;SDS011;11490;42.726;23.268;2023-06-24T10:57:52;12.98;;;5.15;;
22646;SDS011;11490;42.726;23.268;2023-06-24T11:00:20;8.32;;;4.85;;
22646;SDS011;11490;42.726;23.268;2023-06-24T11:02:46;9.65;;;5.28;;
22646;SDS011;11490;42.726;23.268;2023-06-24T11:05:11;8.65;;;5.45;;
22646;SDS011;11490;42.726;23.268;2023-06-24T11:07:37;9.45;;;6.07;;
22646;SDS011;11490;42.726;23.268;2023-06-24T11:10:04;7.88;;;5.20;;
22646;SDS011;11490;42.726;23.268;2023-06-24T11:12:31;8.30;;;5.80;;
22646;SDS011;11490;42.726;23.268;2023-06-24T11:15:02;7.07;;;5.03;;
22646;SDS011;11490;42.726;23.268;2023-06-24T11:17:37;8.30;;;5.00;;
22646;SDS011;11490;42.726;23.268;2023-06-24T11:20:10;7.43;;;5.10;;
22646;SDS011;11490;42.726;23.268;2023-06-24T11:22:37;7.75;;;5.38;;
22646;SDS011;11490;42.726;23.268;2023-06-24T11:25:05;7.95;;;4.75;;
22646;SDS011;11490;42.726;23.268;2023-06-24T11:27:30;6.88;;;4.22;;
22646;SDS011;11490;42.726;23.268;2023-06-24T11:30:00;6.60;;;4.25;;
22646;SDS011;11490;42.726;23.268;2023-06-24T11:32:37;8.73;;;5.43;;
22646;SDS011;11490;42.726;23.268;2023-06-24T11:35:09;9.02;;;5.28;;
22646;SDS011;11490;42.726;23.268;2023-06-24T11:37:36;7.10;;;4.30;;
22646;SDS011;11490;42.726;23.268;2023-06-24T11:40:08;7.90;;;5.00;;
22646;SDS011;11490;42.726;23.268;2023-06-24T11:42:37;5.57;;;3.72;;
22646;SDS011;11490;42.726;23.268;2023-06-24T11:45:09;6.35;;;4.32;;
22646;SDS011;11490;42.726;23.268;2023-06-24T11:47:37;5.43;;;4.15;;
22646;SDS011;11490;42.726;23.268;2023-06-24T11:50:14;7.68;;;5.20;;
22646;SDS011;11490;42.726;23.268;2023-06-24T11:55:15;8.15;;;4.32;;
22646;SDS011;11490;42.726;23.268;2023-06-24T12:00:37;6.32;;;3.80;;
22646;SDS011;11490;42.726;23.268;2023-06-24T12:03:12;6.78;;;5.10;;
22646;SDS011;11490;42.726;23.268;2023-06-24T12:05:37;7.65;;;4.40;;
22646;SDS011;11490;42.726;23.268;2023-06-24T12:08:10;7.07;;;3.60;;
22646;SDS011;11490;42.726;23.268;2023-06-24T12:10:40;6.38;;;4.10;;
22646;SDS011;11490;42.726;23.268;2023-06-24T12:13:06;6.88;;;4.03;;
22646;SDS011;11490;42.726;23.268;2023-06-24T12:15:33;6.43;;;4.32;;
22646;SDS011;11490;42.726;23.268;2023-06-24T12:17:59;10.05;;;5.90;;
22646;SDS011;11490;42.726;23.268;2023-06-24T12:20:29;8.13;;;5.32;;
22646;SDS011;11490;42.726;23.268;2023-06-24T12:22:55;10.65;;;4.60;;
22646;SDS011;11490;42.726;23.268;2023-06-24T12:25:20;6.85;;;3.83;;
22646;SDS011;11490;42.726;23.268;2023-06-24T12:27:46;6.93;;;3.97;;
22646;SDS011;11490;42.726;23.268;2023-06-24T12:30:12;7.05;;;4.63;;
22646;SDS011;11490;42.726;23.268;2023-06-24T12:32:38;5.65;;;3.55;;
22646;SDS011;11490;42.726;23.268;2023-06-24T12:35:04;7.90;;;4.45;;
22646;SDS011;11490;42.726;23.268;2023-06-24T12:37:30;6.75;;;4.78;;
22646;SDS011;11490;42.726;23.268;2023-06-24T12:39:57;8.32;;;4.53;;
22646;SDS011;11490;42.726;23.268;2023-06-24T12:42:23;10.13;;;5.95;;
22646;SDS011;11490;42.726;23.268;2023-06-24T12:44:49;9.00;;;5.15;;
22646;SDS011;11490;42.726;23.268;2023-06-24T12:47:15;6.78;;;4.30;;
22646;SDS011;11490;42.726;23.268;2023-06-24T12:49:40;6.72;;;4.28;;
22646;SDS011;11490;42.726;23.268;2023-06-24T12:52:06;8.63;;;4.03;;
22646;SDS011;11490;42.726;23.268;2023-06-24T12:54:31;5.95;;;4.32;;
22646;SDS011;11490;42.726;23.268;2023-06-24T12:56:57;6.70;;;4.55;;
22646;SDS011;11490;42.726;23.268;2023-06-24T12:59:22;6.75;;;4.25;;
22646;SDS011;11490;42.726;23.268;2023-06-24T13:01:48;6.43;;;4.22;;
22646;SDS011;11490;42.726;23.268;2023-06-24T13:04:13;6.93;;;3.67;;
22646;SDS011;11490;42.726;23.268;2023-06-24T13:06:39;8.32;;;4.32;;
22646;SDS011;11490;42.726;23.268;2023-06-24T13:09:05;8.02;;;4.63;;
22646;SDS011;11490;42.726;23.268;2023-06-24T13:11:39;9.98;;;5.35;;
22646;SDS011;11490;42.726;23.268;2023-06-24T13:14:05;8.85;;;5.10;;
22646;SDS011;11490;42.726;23.268;2023-06-24T13:16:34;9.43;;;5.50;;
22646;SDS011;11490;42.726;23.268;2023-06-24T13:19:02;13.93;;;5.38;;
22646;SDS011;11490;42.726;23.268;2023-06-24T13:21:30;11.93;;;5.93;;
22646;SDS011;11490;42.726;23.268;2023-06-24T13:23:58;9.55;;;5.65;;
22646;SDS011;11490;42.726;23.268;2023-06-24T13:26:24;7.35;;;4.68;;
22646;SDS011;11490;42.726;23.268;2023-06-24T13:28:52;9.13;;;5.10;;
22646;SDS011;11490;42.726;23.268;2023-06-24T13:31:27;6.63;;;3.40;;
22646;SDS011;11490;42.726;23.268;2023-06-24T13:33:59;18.30;;;4.00;;
22646;SDS011;11490;42.726;23.268;2023-06-24T13:36:31;11.63;;;3.47;;
22646;SDS011;11490;42.726;23.268;2023-06-24T13:39:00;9.15;;;3.92;;
22646;SDS011;11490;42.726;23.268;2023-06-24T13:41:28;23.23;;;4.60;;
22646;SDS011;11490;42.726;23.268;2023-06-24T13:43:57;13.25;;;4.38;;
22646;SDS011;11490;42.726;23.268;2023-06-24T13:46:23;10.80;;;4.70;;
22646;SDS011;11490;42.726;23.268;2023-06-24T13:48:51;9.15;;;4.60;;
22646;SDS011;11490;42.726;23.268;2023-06-24T13:51:17;7.72;;;3.75;;
22646;SDS011;11490;42.726;23.268;2023-06-24T13:53:49;8.15;;;4.20;;
22646;SDS011;11490;42.726;23.268;2023-06-24T13:56:17;14.50;;;4.60;;
22646;SDS011;11490;42.726;23.268;2023-06-24T13:58:44;10.65;;;3.85;;
22646;SDS011;11490;42.726;23.268;2023-06-24T14:01:12;10.10;;;4.13;;
22646;SDS011;11490;42.726;23.268;2023-06-24T14:03:39;6.13;;;3.88;;
22646;SDS011;11490;42.726;23.268;2023-06-24T14:06:05;9.70;;;3.70;;
22646;SDS011;11490;42.726;23.268;2023-06-24T14:08:31;5.60;;;3.15;;
22646;SDS011;11490;42.726;23.268;2023-06-24T14:11:00;7.43;;;3.38;;
22646;SDS011;11490;42.726;23.268;2023-06-24T14:13:26;8.73;;;3.95;;
22646;SDS011;11490;42.726;23.268;2023-06-24T14:15:53;11.50;;;3.92;;
22646;SDS011;11490;42.726;23.268;2023-06-24T14:18:18;11.18;;;3.53;;
22646;SDS011;11490;42.726;23.268;2023-06-24T14:20:44;7.32;;;3.40;;
22646;SDS011;11490;42.726;23.268;2023-06-24T14:23:09;7.53;;;3.95;;
22646;SDS011;11490;42.726;23.268;2023-06-24T14:25:35;13.02;;;3.92;;
22646;SDS011;11490;42.726;23.268;2023-06-24T14:28:02;8.45;;;3.75;;
22646;SDS011;11490;42.726;23.268;2023-06-24T14:30:31;20.80;;;6.80;;
22646;SDS011;11490;42.726;23.268;2023-06-24T14:32:57;5.50;;;3.50;;
22646;SDS011;11490;42.726;23.268;2023-06-24T14:35:23;5.63;;;3.55;;
22646;SDS011;11490;42.726;23.268;2023-06-24T14:37:48;6.40;;;3.42;;
22646;SDS011;11490;42.726;23.268;2023-06-24T14:40:13;7.15;;;3.47;;
22646;SDS011;11490;42.726;23.268;2023-06-24T14:42:39;9.20;;;3.72;;
22646;SDS011;11490;42.726;23.268;2023-06-24T14:45:07;9.55;;;4.63;;
22646;SDS011;11490;42.726;23.268;2023-06-24T14:47:33;7.07;;;3.65;;
22646;SDS011;11490;42.726;23.268;2023-06-24T14:49:58;21.00;;;3.90;;
22646;SDS011;11490;42.726;23.268;2023-06-24T14:52:24;6.80;;;3.65;;
22646;SDS011;11490;42.726;23.268;2023-06-24T14:54:49;6.50;;;3.40;;
22646;SDS011;11490;42.726;23.268;2023-06-24T14:57:15;13.63;;;4.40;;
22646;SDS011;11490;42.726;23.268;2023-06-24T14:59:43;5.28;;;3.65;;